CheckWX is a tool to help pilots better visualize weather data.  It is not intended as a substitute for an official pre-flight weather briefing.

04:57:06 UTC

KJAU METAR
Campbell County Airport
Jacksboro, Tennessee, USA
Current

14 hours ago

KJAU 181515Z AUTO 14011G18KT 10SM OVC025 08/03 A3020 RMK A01
Observed
Jan-18 @ 15:15 UTC
Wind
  • 140° at 11 KTS
  • Gusting to 18 KTS
Visibility
10 SM
Flight Rules
MVFR
Cloud Levels
  • Overcast at 2,500' AGL
Temperature
C / 46°F
Dewpoint
C / 37°F
Humidity
71%
Altimeter
30.2" Hg
Pressure
1022.72 hPa
Previous

14 hours ago

KJAU 181455Z AUTO 14013G20KT 110V170 10SM OVC025 07/02 A3021 RMK A01
Observed
Jan-18 @ 14:55 UTC
Wind
  • 140° at 13 KTS
  • Gusting to 20 KTS
Visibility
10 SM
Flight Rules
MVFR
Cloud Levels
  • Overcast at 2,500' AGL
Temperature
C / 45°F
Dewpoint
C / 36°F
Humidity
71%
Altimeter
30.21" Hg
Pressure
1023.02 hPa
Previous

14 hours ago

KJAU 181435Z AUTO 12010G19KT 8SM OVC026 07/02 A3022 RMK A01
Observed
Jan-18 @ 14:35 UTC
Wind
  • 120° at 10 KTS
  • Gusting to 19 KTS
Visibility
8 SM
Flight Rules
MVFR
Cloud Levels
  • Overcast at 2,600' AGL
Temperature
C / 45°F
Dewpoint
C / 36°F
Humidity
71%
Altimeter
30.22" Hg
Pressure
1023.42 hPa